KDEC/DEC METAR and TAF weather

Enter ICAO airport designator
Station Type Date Time Source
KDEC METAR 2019/08/24 19:54 UTC NOAA

KDEC 241954Z 09012KT 10SM FEW046 23/12 A3016 RMK AO2 SLP212 T02330122 $


Station Type Date Time Source
KDEC Decoded METAR 2019/08/24 19:54 UTC NOAA

Station name not available
Aug 24, 2019 - 03:54 PM EDT / 2019.08.24 1954 UTC
Wind: from the E (090 degrees) at 14 MPH (12 KT):0
Visibility: 10 mile(s):0
Sky conditions: mostly clear
Temperature: 73.9 F (23.3 C)
Dew Point: 54.0 F (12.2 C)
Relative Humidity: 49%
Pressure (altimeter): 30.16 in. Hg (1021 hPa)
ob: KDEC 241954Z 09012KT 10SM FEW046 23/12 A3016 RMK AO2 SLP212 T02330122
cycle: 20

Station Type Date Time Source
KDEC TAF 2019/08/24 18:42 UTC NOAA

TAF KDEC 241739Z 2418/2518 10012G19KT P6SM SCT050 SCT250
FM250100 08006KT P6SM SCT250
FM251300 09007KT P6SM SCT150 BKN250
FM251600 10009KT P6SM SCT045 BKN180

Example: see airport list